createdAt,value
2022-10-27T00:00:51.947Z,100776.66
2022-10-27T00:03:19.272Z,100778.38
2022-10-27T00:05:47.743Z,100788.03
2022-10-27T00:08:19.624Z,100782.78
2022-10-27T00:10:56.148Z,100778.56
2022-10-27T00:13:22.734Z,100780.28
2022-10-27T00:16:04.506Z,100781.97
2022-10-27T00:18:32.166Z,100777.66
2022-10-27T00:21:07.048Z,100776.78
2022-10-27T00:23:33.925Z,100785.56
2022-10-27T00:26:01.513Z,100779.41
2022-10-27T00:28:29.668Z,100775.00
2022-10-27T00:31:08.570Z,100782.91
2022-10-27T00:33:35.229Z,100793.47
2022-10-27T00:36:10.576Z,100789.16
2022-10-27T00:38:38.327Z,100793.50
2022-10-27T00:41:06.930Z,100794.31
2022-10-27T00:43:39.308Z,100787.34
2022-10-27T00:46:20.451Z,100799.59
2022-10-27T00:48:51.665Z,100794.38
2022-10-27T00:51:19.698Z,100797.06
2022-10-27T00:53:48.146Z,100799.69
2022-10-27T00:56:15.221Z,100797.94
2022-10-27T00:58:42.889Z,100799.66
2022-10-27T01:01:09.562Z,100802.31
2022-10-27T01:03:36.174Z,100808.53
2022-10-27T01:06:03.181Z,100804.13
2022-10-27T01:08:30.379Z,100805.00
2022-10-27T01:10:57.165Z,100803.19
2022-10-27T01:13:25.531Z,100808.44
2022-10-27T01:16:17.062Z,100810.97
2022-10-27T01:19:15.639Z,100808.28
2022-10-27T01:22:11.809Z,100815.25
2022-10-27T01:24:56.789Z,100813.44
2022-10-27T01:28:02.011Z,100818.66
2022-10-27T01:30:30.635Z,100814.19
2022-10-27T01:33:25.549Z,100821.97
2022-10-27T01:36:03.273Z,100823.59
2022-10-27T01:38:40.483Z,100826.22
2022-10-27T01:41:14.001Z,100818.38
2022-10-27T01:43:40.964Z,100824.44
2022-10-27T01:46:10.150Z,100826.13
2022-10-27T01:48:38.201Z,100825.16
2022-10-27T01:51:07.096Z,100826.97
2022-10-27T01:53:40.137Z,100828.72
2022-10-27T01:56:15.380Z,100831.28
2022-10-27T01:58:57.214Z,100831.22
2022-10-27T02:01:48.499Z,100825.81
2022-10-27T02:04:40.867Z,100828.38
2022-10-27T02:07:25.581Z,100831.84
2022-10-27T02:10:01.075Z,100831.84
2022-10-27T02:12:31.182Z,100830.94
2022-10-27T02:15:02.056Z,100833.59
2022-10-27T02:17:47.190Z,100838.75
2022-10-27T02:20:20.716Z,100839.72
2022-10-27T02:22:51.590Z,100836.16
2022-10-27T02:25:24.095Z,100845.75
2022-10-27T02:27:54.035Z,100845.72
2022-10-27T02:30:20.856Z,100844.75
2022-10-27T02:32:48.188Z,100845.50
2022-10-27T02:35:17.435Z,100841.97
2022-10-27T02:37:45.992Z,100846.31
2022-10-27T02:40:12.694Z,100855.00
2022-10-27T02:42:39.511Z,100838.47
2022-10-27T02:45:06.681Z,100849.75
2022-10-27T02:47:33.245Z,100847.22
2022-10-27T02:49:59.898Z,100841.91
2022-10-27T02:52:26.497Z,100835.78
2022-10-27T02:54:53.073Z,100841.00
2022-10-27T02:57:19.962Z,100843.53
2022-10-27T02:59:49.571Z,100843.44
2022-10-27T03:02:19.579Z,100844.97
2022-10-27T03:04:46.286Z,100843.22
2022-10-27T03:07:12.882Z,100844.19
2022-10-27T03:09:39.579Z,100851.22
2022-10-27T03:12:06.459Z,100852.22
2022-10-27T03:14:33.013Z,100859.22
2022-10-27T03:16:59.635Z,100851.31
2022-10-27T03:19:26.281Z,100852.13
2022-10-27T03:21:52.979Z,100863.44
2022-10-27T03:24:19.614Z,100860.69
2022-10-27T03:26:46.272Z,100870.22
2022-10-27T03:29:14.203Z,100870.91
2022-10-27T03:31:40.794Z,100876.06
2022-10-27T03:34:07.648Z,100875.06
2022-10-27T03:36:34.314Z,100879.38
2022-10-27T03:39:00.950Z,100884.56
2022-10-27T03:41:27.522Z,100879.19
2022-10-27T03:43:54.278Z,100881.78
2022-10-27T03:46:20.887Z,100886.88
2022-10-27T03:48:47.462Z,100889.50
2022-10-27T03:51:14.015Z,100884.16
2022-10-27T03:53:40.605Z,100888.53
2022-10-27T03:56:07.544Z,100888.50
2022-10-27T03:58:34.247Z,100902.28
2022-10-27T04:01:02.633Z,100899.66
2022-10-27T04:03:29.285Z,100890.84
2022-10-27T04:05:58.379Z,100896.13
2022-10-27T04:08:25.008Z,100893.47
2022-10-27T04:10:52.885Z,100891.63
2022-10-27T04:13:19.503Z,100889.84
2022-10-27T04:15:46.139Z,100895.09
2022-10-27T04:18:12.775Z,100893.22
2022-10-27T04:20:39.435Z,100896.63
2022-10-27T04:23:06.036Z,100896.63
2022-10-27T04:25:32.747Z,100897.47
2022-10-27T04:28:07.602Z,100894.81
2022-10-27T04:30:34.745Z,100893.84
2022-10-27T04:33:01.552Z,100898.19
2022-10-27T04:35:29.376Z,100898.03
2022-10-27T04:37:56.800Z,100894.44
2022-10-27T04:40:23.942Z,100902.38
2022-10-27T04:42:50.706Z,100906.78
2022-10-27T04:45:17.823Z,100896.28
2022-10-27T04:47:45.292Z,100907.63
2022-10-27T04:50:13.094Z,100900.63
2022-10-27T04:52:43.481Z,100905.84
2022-10-27T04:55:14.009Z,100905.03
2022-10-27T04:57:40.592Z,100901.63
2022-10-27T05:00:07.847Z,100909.56
2022-10-27T05:02:37.761Z,100906.94
2022-10-27T05:05:06.057Z,100919.16
2022-10-27T05:07:32.650Z,100911.28
2022-10-27T05:09:59.294Z,100914.72
2022-10-27T05:12:25.912Z,100899.75
2022-10-27T05:14:52.669Z,100918.19
2022-10-27T05:17:19.761Z,100919.84
2022-10-27T05:19:46.640Z,100929.41
2022-10-27T05:22:13.173Z,100930.25
2022-10-27T05:24:39.755Z,100936.31
2022-10-27T05:27:06.500Z,100933.66
2022-10-27T05:29:33.872Z,100946.72
2022-10-27T05:32:01.858Z,100952.00
2022-10-27T05:34:28.432Z,100956.22
2022-10-27T05:36:55.065Z,100954.28
2022-10-27T05:39:21.895Z,100956.84
2022-10-27T05:41:48.909Z,100959.38
2022-10-27T05:44:15.536Z,100951.53
2022-10-27T05:46:42.131Z,100954.22
2022-10-27T05:49:08.716Z,100956.13
2022-10-27T05:51:35.372Z,100958.00
2022-10-27T05:54:02.154Z,100956.72
2022-10-27T05:56:28.737Z,100960.84
2022-10-27T05:58:55.368Z,100965.53
2022-10-27T06:01:23.146Z,100969.25
2022-10-27T06:03:49.800Z,100974.75
2022-10-27T06:06:16.355Z,100984.59
2022-10-27T06:08:42.976Z,100976.16
2022-10-27T06:11:09.591Z,100986.00
2022-10-27T06:13:36.218Z,100989.81
2022-10-27T06:16:02.831Z,100991.09
2022-10-27T06:18:29.442Z,100993.13
2022-10-27T06:20:56.141Z,100993.13
2022-10-27T06:23:22.714Z,100996.69
2022-10-27T06:25:49.386Z,100996.03
2022-10-27T06:28:17.049Z,101008.69
2022-10-27T06:30:45.288Z,101001.13
2022-10-27T06:33:11.906Z,101002.81
2022-10-27T06:35:38.739Z,101008.22
2022-10-27T06:38:05.628Z,101006.84
2022-10-27T06:40:32.340Z,101011.50
2022-10-27T06:43:06.736Z,101019.91
2022-10-27T06:45:37.329Z,101016.88
2022-10-27T06:48:08.716Z,101023.78
2022-10-27T06:50:36.792Z,101036.22
2022-10-27T06:53:03.512Z,101040.53
2022-10-27T06:55:31.642Z,101043.53
2022-10-27T06:57:58.445Z,101041.56
2022-10-27T07:00:25.961Z,101043.66
2022-10-27T07:02:52.917Z,101046.34
2022-10-27T07:05:19.783Z,101051.56
2022-10-27T07:07:55.798Z,101055.56
2022-10-27T07:10:22.761Z,101062.19
2022-10-27T07:12:57.198Z,101071.44
2022-10-27T07:15:25.285Z,101072.41
2022-10-27T07:18:00.660Z,101079.16
2022-10-27T07:20:30.280Z,101069.31
2022-10-27T07:22:57.751Z,101066.53
2022-10-27T07:25:24.618Z,101069.44
2022-10-27T07:27:54.950Z,101079.19
2022-10-27T07:30:24.358Z,101088.28
2022-10-27T07:32:51.179Z,101086.50
2022-10-27T07:35:17.857Z,101096.06
2022-10-27T07:37:48.336Z,101095.69
2022-10-27T07:40:19.022Z,101095.94
2022-10-27T07:42:50.866Z,101094.19
2022-10-27T07:45:19.568Z,101102.34
2022-10-27T07:47:49.376Z,101103.28
2022-10-27T07:50:17.220Z,101102.25
2022-10-27T07:52:45.257Z,101115.22
2022-10-27T07:55:15.491Z,101115.78
2022-10-27T07:57:44.576Z,101117.00
2022-10-27T08:00:13.962Z,101130.19
2022-10-27T08:02:40.752Z,101130.00
2022-10-27T08:05:08.309Z,101137.69
2022-10-27T08:07:35.690Z,101137.72
2022-10-27T08:10:03.383Z,101143.19
2022-10-27T08:12:29.998Z,101146.47
2022-10-27T08:14:56.933Z,101146.31
2022-10-27T08:17:26.698Z,101138.13
2022-10-27T08:19:53.413Z,101143.19
2022-10-27T08:22:19.982Z,101131.31
2022-10-27T08:24:46.650Z,101134.31
2022-10-27T08:27:13.465Z,101138.16
2022-10-27T08:29:40.060Z,101151.91
2022-10-27T08:32:07.707Z,101143.78
2022-10-27T08:34:34.297Z,101143.06
2022-10-27T08:37:00.997Z,101147.00
2022-10-27T08:39:27.583Z,101145.09
2022-10-27T08:42:11.387Z,101152.00
2022-10-27T08:45:00.747Z,101157.56
2022-10-27T08:47:27.408Z,101145.75
2022-10-27T08:50:05.926Z,101147.78
2022-10-27T08:52:37.602Z,101140.19
2022-10-27T08:55:09.498Z,101143.13
2022-10-27T08:57:37.017Z,101148.63
2022-10-27T09:00:07.001Z,101154.72
2022-10-27T09:03:13.458Z,101153.63
2022-10-27T09:06:12.711Z,101151.38
2022-10-27T09:09:06.687Z,101151.72
2022-10-27T09:11:51.959Z,101144.75
2022-10-27T09:14:50.337Z,101146.81
2022-10-27T09:17:22.165Z,101146.88
2022-10-27T09:19:53.945Z,101140.31
2022-10-27T09:22:22.482Z,101146.47
2022-10-27T09:25:02.445Z,101145.03
2022-10-27T09:27:29.138Z,101138.75
2022-10-27T09:30:03.562Z,101142.13
2022-10-27T09:32:33.157Z,101139.47
2022-10-27T09:35:16.493Z,101138.31
2022-10-27T09:37:46.017Z,101143.44
2022-10-27T09:40:16.635Z,101140.03
2022-10-27T09:42:43.818Z,101138.22
2022-10-27T09:45:32.775Z,101141.97
2022-10-27T09:48:19.619Z,101132.16
2022-10-27T09:50:58.646Z,101132.31
2022-10-27T09:54:03.862Z,101136.28
2022-10-27T09:56:33.593Z,101142.69
2022-10-27T09:59:05.349Z,101140.59
2022-10-27T10:01:43.728Z,101140.47
2022-10-27T10:04:30.085Z,101147.41
2022-10-27T10:07:00.071Z,101145.75
2022-10-27T10:09:35.223Z,101142.44
2022-10-27T10:12:24.651Z,101142.84
2022-10-27T10:15:11.549Z,101146.59
2022-10-27T10:17:41.250Z,101148.19
2022-10-27T10:20:23.959Z,101147.56
2022-10-27T10:22:51.791Z,101150.81
2022-10-27T10:25:26.882Z,101140.06
2022-10-27T10:27:59.759Z,101146.22
2022-10-27T10:30:27.030Z,101145.53
2022-10-27T10:32:57.973Z,101138.59
2022-10-27T10:35:41.290Z,101145.75
2022-10-27T10:38:42.812Z,101140.19
2022-10-27T10:41:17.064Z,101153.78
2022-10-27T10:43:44.659Z,101146.81
2022-10-27T10:46:23.337Z,101149.94
2022-10-27T10:48:53.975Z,101152.72
2022-10-27T10:51:28.924Z,101144.97
2022-10-27T10:54:01.374Z,101142.91
2022-10-27T10:56:32.518Z,101135.34
2022-10-27T10:59:16.994Z,101147.84
2022-10-27T11:01:53.237Z,101139.38
2022-10-27T11:04:27.652Z,101134.88
2022-10-27T11:07:20.967Z,101138.81
2022-10-27T11:10:03.589Z,101140.78
2022-10-27T11:12:54.913Z,101142.81
2022-10-27T11:15:43.830Z,101141.63
2022-10-27T11:18:24.832Z,101133.91
2022-10-27T11:20:59.262Z,101152.16
2022-10-27T11:23:43.167Z,101144.88
2022-10-27T11:26:11.431Z,101146.47
2022-10-27T11:28:54.025Z,101143.34
2022-10-27T11:31:46.452Z,101140.47
2022-10-27T11:34:49.691Z,101139.72
2022-10-27T11:37:57.616Z,101135.69
2022-10-27T11:40:44.582Z,101131.06
2022-10-27T11:43:19.262Z,101135.41
2022-10-27T11:45:49.012Z,101135.69
2022-10-27T11:48:26.482Z,101123.25
2022-10-27T11:51:31.850Z,101115.25
2022-10-27T11:53:58.730Z,101120.72
2022-10-27T11:56:27.831Z,101117.59
2022-10-27T11:59:11.421Z,101133.63
2022-10-27T12:02:10.120Z,101124.00
2022-10-27T12:04:53.984Z,101118.94
2022-10-27T12:07:32.360Z,101123.72
2022-10-27T12:10:07.547Z,101127.13
2022-10-27T12:12:38.998Z,101117.06
2022-10-27T12:15:28.814Z,101127.59
2022-10-27T12:18:29.202Z,101122.50
2022-10-27T12:21:05.807Z,101115.59
2022-10-27T12:23:43.224Z,101117.31
2022-10-27T12:26:32.804Z,101108.69
2022-10-27T12:29:04.462Z,101111.22
2022-10-27T12:31:38.593Z,101113.53
2022-10-27T12:34:08.641Z,101107.38
2022-10-27T12:36:59.393Z,101109.19
2022-10-27T12:39:55.593Z,101109.69
2022-10-27T12:42:37.129Z,101113.28
2022-10-27T12:45:35.156Z,101101.97
2022-10-27T12:48:59.921Z,101102.31
2022-10-27T12:51:42.706Z,101095.13
2022-10-27T12:54:30.737Z,101099.66
2022-10-27T12:57:10.818Z,101103.53
2022-10-27T13:00:12.318Z,101096.03
2022-10-27T13:02:55.094Z,101096.31
2022-10-27T13:05:59.499Z,101102.81
2022-10-27T13:09:03.499Z,101107.91
2022-10-27T13:11:47.327Z,101108.59
2022-10-27T13:14:30.275Z,101101.50
2022-10-27T13:17:13.833Z,101099.81
2022-10-27T13:19:54.052Z,101103.41
2022-10-27T13:22:44.086Z,101103.91
2022-10-27T13:25:41.992Z,101106.41
2022-10-27T13:28:18.663Z,101102.16
2022-10-27T13:30:56.782Z,101100.66
2022-10-27T13:33:33.850Z,101102.06
2022-10-27T13:36:19.704Z,101098.28
2022-10-27T13:38:48.350Z,101103.50
2022-10-27T13:41:57.582Z,101099.97
2022-10-27T13:44:42.066Z,101090.91
2022-10-27T13:47:14.084Z,101088.19
2022-10-27T13:49:40.639Z,101083.16
2022-10-27T13:52:18.786Z,101085.88
2022-10-27T13:55:03.889Z,101086.94
2022-10-27T13:57:55.875Z,101080.44
2022-10-27T14:00:41.594Z,101083.16
2022-10-27T14:03:24.608Z,101079.75
2022-10-27T14:05:51.829Z,101070.00
2022-10-27T14:08:30.666Z,101077.31
2022-10-27T14:11:01.284Z,101067.88
2022-10-27T14:13:50.282Z,101075.53
2022-10-27T14:16:28.098Z,101080.22
2022-10-27T14:19:04.833Z,101068.66
2022-10-27T14:21:35.402Z,101073.22
2022-10-27T14:24:12.082Z,101073.25
2022-10-27T14:26:38.860Z,101067.16
2022-10-27T14:29:06.167Z,101074.59
2022-10-27T14:31:33.603Z,101085.28
2022-10-27T14:34:24.613Z,101080.91
2022-10-27T14:36:54.569Z,101078.53
2022-10-27T14:39:27.507Z,101083.16
2022-10-27T14:41:58.455Z,101076.25
2022-10-27T14:44:30.208Z,101076.47
2022-10-27T14:47:04.398Z,101085.50
2022-10-27T14:49:53.350Z,101083.94
2022-10-27T14:52:34.279Z,101076.03
2022-10-27T14:55:01.142Z,101084.13
2022-10-27T14:57:27.778Z,101086.84
2022-10-27T14:59:54.608Z,101085.16
2022-10-27T15:02:23.214Z,101086.97
2022-10-27T15:04:50.060Z,101089.78
2022-10-27T15:07:20.269Z,101081.88
2022-10-27T15:09:52.861Z,101080.28
2022-10-27T15:12:26.015Z,101085.69
2022-10-27T15:14:54.976Z,101081.44
2022-10-27T15:17:31.235Z,101084.13
2022-10-27T15:20:00.406Z,101076.22
2022-10-27T15:22:28.252Z,101081.66
2022-10-27T15:24:55.861Z,101080.91
2022-10-27T15:27:22.780Z,101072.16
2022-10-27T15:29:52.556Z,101071.34
2022-10-27T15:32:39.163Z,101081.22
2022-10-27T15:35:30.005Z,101080.47
2022-10-27T15:37:58.214Z,101071.66
2022-10-27T15:40:45.176Z,101073.53
2022-10-27T15:43:28.330Z,101071.88
2022-10-27T15:46:35.577Z,101073.78
2022-10-27T15:49:02.038Z,101072.06
2022-10-27T15:51:47.416Z,101073.00
2022-10-27T15:54:39.392Z,101070.44
2022-10-27T15:57:30.635Z,101085.56
2022-10-27T16:00:12.438Z,101080.28
2022-10-27T16:02:49.449Z,101080.38
2022-10-27T16:05:31.138Z,101069.78
2022-10-27T16:08:20.816Z,101071.56
2022-10-27T16:10:52.941Z,101069.84
2022-10-27T16:13:21.895Z,101071.72
2022-10-27T16:15:52.079Z,101066.47
2022-10-27T16:18:22.799Z,101071.81
2022-10-27T16:20:49.416Z,101069.22
2022-10-27T16:23:16.319Z,101063.06
2022-10-27T16:25:45.690Z,101060.44
2022-10-27T16:28:19.064Z,101064.88
2022-10-27T16:30:46.135Z,101068.41
2022-10-27T16:33:18.418Z,101058.72
2022-10-27T16:35:45.108Z,101056.03
2022-10-27T16:38:11.963Z,101064.88
2022-10-27T16:40:47.478Z,101048.09
2022-10-27T16:43:25.865Z,101066.63
2022-10-27T16:45:52.579Z,101062.22
2022-10-27T16:48:19.249Z,101059.56
2022-10-27T16:50:46.801Z,101054.25
2022-10-27T16:53:20.249Z,101056.00
2022-10-27T16:55:59.049Z,101048.94
2022-10-27T16:58:30.796Z,101066.59
2022-10-27T17:01:04.030Z,101056.88
2022-10-27T17:03:30.708Z,101051.53
2022-10-27T17:05:59.176Z,101044.50
2022-10-27T17:08:25.954Z,101047.13
2022-10-27T17:10:52.577Z,101048.88
2022-10-27T17:13:19.444Z,101050.63
2022-10-27T17:15:46.058Z,101049.75
2022-10-27T17:18:13.353Z,101053.22
2022-10-27T17:20:43.094Z,101046.16
2022-10-27T17:23:09.854Z,101046.13
2022-10-27T17:25:36.529Z,101052.19
2022-10-27T17:28:03.183Z,101052.13
2022-10-27T17:30:29.815Z,101049.56
2022-10-27T17:32:56.488Z,101046.94
2022-10-27T17:35:23.137Z,101050.53
2022-10-27T17:37:51.590Z,101051.44
2022-10-27T17:40:18.359Z,101046.97
2022-10-27T17:42:45.136Z,101051.38
2022-10-27T17:45:11.906Z,101050.44
2022-10-27T17:47:38.558Z,101049.50
2022-10-27T17:50:08.965Z,101049.47
2022-10-27T17:52:37.198Z,101052.94
2022-10-27T17:55:04.708Z,101053.75
2022-10-27T17:57:31.588Z,101049.34
2022-10-27T17:59:58.195Z,101058.09
2022-10-27T18:02:25.556Z,101057.19
2022-10-27T18:04:54.768Z,101058.13
2022-10-27T18:07:22.565Z,101059.88
2022-10-27T18:09:49.181Z,101060.75
2022-10-27T18:12:15.760Z,101065.06
2022-10-27T18:14:43.229Z,101058.84
2022-10-27T18:17:10.591Z,101064.19
2022-10-27T18:19:37.307Z,101061.56
2022-10-27T18:22:04.524Z,101054.47
2022-10-27T18:24:31.093Z,101056.31
2022-10-27T18:26:57.827Z,101058.91
2022-10-27T18:29:26.538Z,101058.81
2022-10-27T18:31:53.469Z,101051.66
2022-10-27T18:34:20.369Z,101058.69
2022-10-27T18:36:47.102Z,101058.69
2022-10-27T18:39:24.006Z,101055.16
2022-10-27T18:41:50.720Z,101060.53
2022-10-27T18:44:19.675Z,101063.19
2022-10-27T18:46:46.436Z,101058.75
2022-10-27T18:49:16.049Z,101059.63
2022-10-27T18:51:51.754Z,101065.75
2022-10-27T18:54:18.412Z,101064.75
2022-10-27T18:56:48.121Z,101058.50
2022-10-27T18:59:14.876Z,101062.03
2022-10-27T19:01:46.611Z,101067.38
2022-10-27T19:04:15.860Z,101074.44
2022-10-27T19:06:42.565Z,101061.19
2022-10-27T19:09:13.436Z,101066.41
2022-10-27T19:11:40.086Z,101055.78
2022-10-27T19:14:06.928Z,101052.25
2022-10-27T19:16:33.615Z,101061.00
2022-10-27T19:19:00.984Z,101066.16
2022-10-27T19:21:30.926Z,101061.66
2022-10-27T19:24:02.657Z,101059.00
2022-10-27T19:26:32.063Z,101065.94
2022-10-27T19:28:59.064Z,101071.38
2022-10-27T19:31:43.277Z,101072.28
2022-10-27T19:34:10.467Z,101068.75
2022-10-27T19:36:37.364Z,101069.66
2022-10-27T19:39:08.657Z,101067.94
2022-10-27T19:41:36.787Z,101068.84
2022-10-27T19:44:07.753Z,101064.44
2022-10-27T19:46:34.486Z,101068.78
2022-10-27T19:49:02.688Z,101067.81
2022-10-27T19:51:35.119Z,101067.69
2022-10-27T19:54:04.593Z,101065.75
2022-10-27T19:56:32.583Z,101070.09
2022-10-27T19:59:03.189Z,101068.22
2022-10-27T20:01:35.854Z,101069.00
2022-10-27T20:04:04.016Z,101064.50
2022-10-27T20:06:31.079Z,101060.06
2022-10-27T20:08:59.105Z,101059.97
2022-10-27T20:11:28.524Z,101067.00
2022-10-27T20:14:00.386Z,101073.13
2022-10-27T20:16:30.327Z,101063.69
2022-10-27T20:19:13.714Z,101070.69
2022-10-27T20:21:41.092Z,101078.44
2022-10-27T20:24:14.553Z,101072.81
2022-10-27T20:26:47.064Z,101071.44
2022-10-27T20:29:14.418Z,101072.25
2022-10-27T20:31:41.141Z,101074.09
2022-10-27T20:34:11.930Z,101081.03
2022-10-27T20:36:41.027Z,101073.28
2022-10-27T20:39:10.896Z,101067.19
2022-10-27T20:41:37.480Z,101076.84
2022-10-27T20:44:04.492Z,101071.59
2022-10-27T20:46:33.309Z,101073.47
2022-10-27T20:49:00.868Z,101071.69
2022-10-27T20:51:30.037Z,101065.44
2022-10-27T20:53:57.018Z,101061.09
2022-10-27T20:56:29.084Z,101058.44
2022-10-27T20:58:56.330Z,101058.31
2022-10-27T21:01:37.228Z,101045.94
2022-10-27T21:04:08.017Z,101045.88
2022-10-27T21:06:40.585Z,101045.88
2022-10-27T21:09:10.707Z,101048.41
2022-10-27T21:11:38.007Z,101048.38
2022-10-27T21:14:06.362Z,101051.06
2022-10-27T21:16:33.508Z,101044.16
2022-10-27T21:19:03.001Z,101034.69
2022-10-27T21:21:31.684Z,101031.91
2022-10-27T21:24:02.604Z,101033.53
2022-10-27T21:26:29.749Z,101031.84
2022-10-27T21:28:58.182Z,101038.81
2022-10-27T21:31:29.034Z,101033.59
2022-10-27T21:33:56.727Z,101036.56
2022-10-27T21:36:23.724Z,101028.16
2022-10-27T21:38:50.888Z,101038.84
2022-10-27T21:41:20.152Z,101037.16
2022-10-27T21:43:49.764Z,101029.25
2022-10-27T21:46:19.056Z,101022.94
2022-10-27T21:48:47.383Z,101031.41
2022-10-27T21:51:15.690Z,101021.63
2022-10-27T21:53:42.541Z,101025.03
2022-10-27T21:56:11.234Z,101024.06
2022-10-27T21:58:39.769Z,101021.69
2022-10-27T22:01:16.641Z,101009.72
2022-10-27T22:03:45.604Z,101012.47
2022-10-27T22:06:21.772Z,101012.53
2022-10-27T22:08:50.928Z,101002.03
2022-10-27T22:11:23.174Z,101001.19
2022-10-27T22:13:50.465Z,101001.03
2022-10-27T22:16:19.688Z,101003.09
2022-10-27T22:18:52.826Z,100992.34
2022-10-27T22:21:19.720Z,101000.94
2022-10-27T22:23:46.303Z,100988.03
2022-10-27T22:26:15.798Z,100994.47
2022-10-27T22:28:52.801Z,100997.31
2022-10-27T22:31:24.993Z,100978.78
2022-10-27T22:33:51.805Z,100984.59
2022-10-27T22:36:21.693Z,100990.66
2022-10-27T22:38:53.400Z,100981.84
2022-10-27T22:41:20.027Z,100973.91
2022-10-27T22:43:49.112Z,100983.50
2022-10-27T22:46:18.889Z,100971.03
2022-10-27T22:48:45.570Z,100970.97
2022-10-27T22:51:14.412Z,100958.75
2022-10-27T22:53:42.181Z,100964.81
2022-10-27T22:56:14.735Z,100975.16
2022-10-27T22:58:41.956Z,100966.38
2022-10-27T23:01:15.072Z,100963.63
2022-10-27T23:03:41.990Z,100962.78
2022-10-27T23:06:09.075Z,100960.22
2022-10-27T23:08:35.936Z,100973.31
2022-10-27T23:11:05.327Z,100964.59
2022-10-27T23:13:34.830Z,100971.63
2022-10-27T23:16:07.426Z,100990.84
2022-10-27T23:18:35.266Z,100975.75
2022-10-27T23:21:03.070Z,100980.97
2022-10-27T23:23:31.136Z,100974.13
2022-10-27T23:25:58.310Z,100977.75
2022-10-27T23:28:28.182Z,100978.53
2022-10-27T23:30:54.976Z,100956.47
2022-10-27T23:33:21.729Z,100964.06
2022-10-27T23:35:57.203Z,100971.06
2022-10-27T23:41:11.064Z,100980.31
2022-10-27T23:43:37.793Z,100975.00
2022-10-27T23:46:08.153Z,100970.56
2022-10-27T23:48:36.532Z,100969.88
2022-10-27T23:51:03.850Z,100957.38
2022-10-27T23:53:30.955Z,100961.56
2022-10-27T23:56:02.911Z,100962.81
2022-10-27T23:58:32.452Z,100955.81
